createdAt,value
2023-09-16T00:01:44.292Z,101437.94
2023-09-16T00:04:12.513Z,101437.25
2023-09-16T00:06:39.214Z,101434.56
2023-09-16T00:09:05.807Z,101438.09
2023-09-16T00:11:33.318Z,101443.50
2023-09-16T00:13:59.853Z,101446.03
2023-09-16T00:16:26.410Z,101438.47
2023-09-16T00:18:53.178Z,101448.31
2023-09-16T00:21:19.868Z,101445.25
2023-09-16T00:23:46.316Z,101431.91
2023-09-16T00:26:14.706Z,101431.00
2023-09-16T00:28:41.543Z,101434.44
2023-09-16T00:31:08.912Z,101429.41
2023-09-16T00:33:35.607Z,101428.63
2023-09-16T00:36:02.187Z,101426.97
2023-09-16T00:38:28.814Z,101421.88
2023-09-16T00:40:55.447Z,101419.16
2023-09-16T00:43:22.084Z,101419.06
2023-09-16T00:45:48.773Z,101421.78
2023-09-16T00:48:16.852Z,101421.78
2023-09-16T00:50:44.592Z,101419.41
2023-09-16T00:53:13.306Z,101414.75
2023-09-16T00:55:40.092Z,101418.56
2023-09-16T00:58:10.306Z,101410.66
2023-09-16T01:00:37.607Z,101418.84
2023-09-16T01:03:06.254Z,101414.69
2023-09-16T01:05:34.533Z,101410.81
2023-09-16T01:08:01.224Z,101418.63
2023-09-16T01:10:27.898Z,101409.22
2023-09-16T01:12:56.337Z,101415.47
2023-09-16T01:15:26.012Z,101419.50
2023-09-16T01:18:03.952Z,101416.69
2023-09-16T01:20:30.771Z,101414.53
2023-09-16T01:22:57.553Z,101419.94
2023-09-16T01:25:30.772Z,101418.34
2023-09-16T01:27:57.655Z,101412.16
2023-09-16T01:30:29.980Z,101408.94
2023-09-16T01:33:14.454Z,101409.28
2023-09-16T01:35:42.808Z,101403.69
2023-09-16T01:38:16.001Z,101401.59
2023-09-16T01:40:45.032Z,101396.00
2023-09-16T01:43:12.149Z,101391.59
2023-09-16T01:45:45.810Z,101395.53
2023-09-16T01:48:12.644Z,101392.81
2023-09-16T01:50:39.354Z,101384.97
2023-09-16T01:53:08.367Z,101393.59
2023-09-16T01:55:35.879Z,101390.59
2023-09-16T01:58:02.733Z,101388.75
2023-09-16T02:00:29.479Z,101392.59
2023-09-16T02:02:56.161Z,101395.00
2023-09-16T02:05:22.745Z,101398.84
2023-09-16T02:07:49.293Z,101395.69
2023-09-16T02:10:16.185Z,101396.84
2023-09-16T02:12:42.986Z,101398.78
2023-09-16T02:15:10.979Z,101395.22
2023-09-16T02:17:40.326Z,101402.16
2023-09-16T02:20:11.141Z,101397.84
2023-09-16T02:22:38.688Z,101397.38
2023-09-16T02:25:05.657Z,101397.59
2023-09-16T02:27:33.403Z,101394.44
2023-09-16T02:30:00.153Z,101401.38
2023-09-16T02:32:26.732Z,101401.38
2023-09-16T02:34:53.344Z,101405.53
2023-09-16T02:37:21.438Z,101407.03
2023-09-16T02:39:48.122Z,101398.78
2023-09-16T02:42:14.863Z,101405.75
2023-09-16T02:44:41.428Z,101400.97
2023-09-16T02:47:07.946Z,101387.31
2023-09-16T02:49:34.483Z,101403.00
2023-09-16T02:52:01.016Z,101391.31
2023-09-16T02:54:28.516Z,101401.34
2023-09-16T02:56:55.060Z,101394.66
2023-09-16T02:59:21.551Z,101395.00
2023-09-16T03:01:48.168Z,101396.94
2023-09-16T03:04:14.780Z,101391.41
2023-09-16T03:06:41.401Z,101388.25
2023-09-16T03:09:08.011Z,101389.38
2023-09-16T03:11:38.374Z,101376.53
2023-09-16T03:14:04.921Z,101383.22
2023-09-16T03:16:33.194Z,101387.09
2023-09-16T03:19:00.082Z,101378.47
2023-09-16T03:21:27.174Z,101381.94
2023-09-16T03:23:53.712Z,101376.47
2023-09-16T03:26:20.230Z,101376.38
2023-09-16T03:28:47.935Z,101376.66
2023-09-16T03:31:17.922Z,101373.81
2023-09-16T03:33:44.574Z,101371.91
2023-09-16T03:36:11.171Z,101372.25
2023-09-16T03:38:48.429Z,101370.31
2023-09-16T03:41:16.571Z,101362.50
2023-09-16T03:43:43.692Z,101362.41
2023-09-16T03:46:10.823Z,101358.00
2023-09-16T03:48:37.465Z,101354.50
2023-09-16T03:51:08.080Z,101350.25
2023-09-16T03:56:10.049Z,101346.84
2023-09-16T03:58:37.138Z,101350.78
2023-09-16T04:01:03.834Z,101346.91
2023-09-16T04:03:31.621Z,101352.91
2023-09-16T04:05:59.582Z,101350.78
2023-09-16T04:08:30.767Z,101348.78
2023-09-16T04:11:07.595Z,101348.25
2023-09-16T04:13:34.285Z,101349.03
2023-09-16T04:16:00.802Z,101353.34
2023-09-16T04:18:27.343Z,101342.28
2023-09-16T04:20:56.632Z,101344.66
2023-09-16T04:23:24.034Z,101342.28
2023-09-16T04:26:01.781Z,101351.09
2023-09-16T04:28:29.595Z,101347.22
2023-09-16T04:30:57.378Z,101349.50
2023-09-16T04:33:24.091Z,101355.75
2023-09-16T04:35:52.178Z,101355.28
2023-09-16T04:38:19.994Z,101352.50
2023-09-16T04:40:50.418Z,101345.03
2023-09-16T04:43:17.167Z,101348.44
2023-09-16T04:45:44.973Z,101347.22
2023-09-16T04:48:14.493Z,101349.94
2023-09-16T04:50:43.403Z,101346.44
2023-09-16T04:53:11.090Z,101347.66
2023-09-16T04:55:38.322Z,101344.25
2023-09-16T04:58:05.155Z,101357.94
2023-09-16T05:00:34.688Z,101359.88
2023-09-16T05:03:01.968Z,101350.38
2023-09-16T05:05:28.671Z,101355.75
2023-09-16T05:07:55.317Z,101356.00
2023-09-16T05:10:22.182Z,101349.34
2023-09-16T05:12:48.706Z,101349.34
2023-09-16T05:15:15.415Z,101347.41
2023-09-16T05:17:42.547Z,101344.25
2023-09-16T05:20:10.033Z,101351.94
2023-09-16T05:22:36.632Z,101352.84
2023-09-16T05:25:06.953Z,101351.69
2023-09-16T05:27:33.734Z,101352.91
2023-09-16T05:30:02.975Z,101359.00
2023-09-16T05:32:30.656Z,101355.50
2023-09-16T05:34:57.265Z,101350.13
2023-09-16T05:37:24.015Z,101357.69
2023-09-16T05:39:50.535Z,101351.78
2023-09-16T05:42:17.044Z,101353.47
2023-09-16T05:44:43.569Z,101360.91
2023-09-16T05:47:10.258Z,101349.22
2023-09-16T05:49:37.006Z,101350.72
2023-09-16T05:52:03.872Z,101354.59
2023-09-16T05:54:30.411Z,101366.28
2023-09-16T05:56:56.972Z,101360.66
2023-09-16T05:59:24.770Z,101365.03
2023-09-16T06:01:51.672Z,101356.44
2023-09-16T06:04:18.276Z,101363.56
2023-09-16T06:06:45.099Z,101366.00
2023-09-16T06:09:11.687Z,101371.94
2023-09-16T06:11:38.307Z,101372.78
2023-09-16T06:14:07.295Z,101373.59
2023-09-16T06:16:34.317Z,101377.88
2023-09-16T06:19:01.070Z,101375.53
2023-09-16T06:21:27.637Z,101377.53
2023-09-16T06:23:54.249Z,101385.72
2023-09-16T06:26:20.774Z,101378.84
2023-09-16T06:28:47.727Z,101376.91
2023-09-16T06:31:14.593Z,101377.53
2023-09-16T06:33:41.443Z,101381.72
2023-09-16T06:36:08.124Z,101384.59
2023-09-16T06:38:34.667Z,101381.25
2023-09-16T06:41:01.297Z,101384.06
2023-09-16T06:43:28.090Z,101387.66
2023-09-16T06:45:54.835Z,101381.06
2023-09-16T06:48:21.501Z,101388.19
2023-09-16T06:50:48.166Z,101381.78
2023-09-16T06:53:14.749Z,101393.06
2023-09-16T06:55:41.309Z,101385.78
2023-09-16T07:00:52.524Z,101386.88
2023-09-16T07:03:20.395Z,101381.03
2023-09-16T07:05:47.747Z,101387.94
2023-09-16T07:08:18.711Z,101398.22
2023-09-16T07:10:45.481Z,101391.75
2023-09-16T07:13:12.093Z,101389.56
2023-09-16T07:15:39.378Z,101386.88
2023-09-16T07:18:06.165Z,101386.59
2023-09-16T07:20:32.767Z,101385.50
2023-09-16T07:22:59.395Z,101384.22
2023-09-16T07:25:25.956Z,101391.47
2023-09-16T07:27:55.664Z,101390.34
2023-09-16T07:30:22.823Z,101392.59
2023-09-16T07:32:51.449Z,101394.94
2023-09-16T07:35:18.541Z,101391.47
2023-09-16T07:37:45.188Z,101381.38
2023-09-16T07:40:12.392Z,101377.16
2023-09-16T07:42:39.180Z,101382.47
2023-09-16T07:45:06.304Z,101394.88
2023-09-16T07:47:33.921Z,101389.09
2023-09-16T07:50:00.873Z,101399.19
2023-09-16T07:52:27.446Z,101399.28
2023-09-16T07:54:57.163Z,101399.19
2023-09-16T07:57:23.688Z,101400.19
2023-09-16T07:59:50.376Z,101399.59
2023-09-16T08:02:17.570Z,101401.28
2023-09-16T08:04:44.244Z,101406.50
2023-09-16T08:07:10.946Z,101403.59
2023-09-16T08:09:37.647Z,101413.47
2023-09-16T08:12:04.518Z,101412.44
2023-09-16T08:14:31.139Z,101400.19
2023-09-16T08:16:59.513Z,101406.28
2023-09-16T08:19:26.212Z,101408.31
2023-09-16T08:21:53.342Z,101408.69
2023-09-16T08:24:19.970Z,101419.88
2023-09-16T08:26:46.575Z,101409.53
2023-09-16T08:29:13.167Z,101420.72
2023-09-16T08:31:39.904Z,101421.25
2023-09-16T08:34:06.905Z,101421.75
2023-09-16T08:36:33.486Z,101416.00
2023-09-16T08:39:00.059Z,101413.28
2023-09-16T08:41:40.973Z,101414.50
2023-09-16T08:44:10.501Z,101414.94
2023-09-16T08:46:44.977Z,101413.00
2023-09-16T08:49:14.594Z,101416.56
2023-09-16T08:51:44.677Z,101412.25
2023-09-16T08:54:12.532Z,101416.97
2023-09-16T08:56:41.346Z,101411.84
2023-09-16T08:59:08.003Z,101416.53
2023-09-16T09:01:35.039Z,101422.41
2023-09-16T09:04:02.308Z,101425.94
2023-09-16T09:06:40.071Z,101421.59
2023-09-16T09:09:07.819Z,101426.69
2023-09-16T09:11:35.335Z,101424.66
2023-09-16T09:14:02.558Z,101417.13
2023-09-16T09:16:30.819Z,101422.63
2023-09-16T09:18:58.616Z,101422.19
2023-09-16T09:21:26.439Z,101421.38
2023-09-16T09:23:53.252Z,101428.06
2023-09-16T09:26:19.796Z,101430.00
2023-09-16T09:28:48.320Z,101430.03
2023-09-16T09:31:15.543Z,101431.16
2023-09-16T09:33:42.613Z,101424.06
2023-09-16T09:36:19.459Z,101424.41
2023-09-16T09:38:47.587Z,101429.94
2023-09-16T09:41:15.779Z,101432.25
2023-09-16T09:43:42.511Z,101430.22
2023-09-16T09:46:09.544Z,101426.22
2023-09-16T09:48:38.260Z,101431.69
2023-09-16T09:51:09.573Z,101433.22
2023-09-16T09:53:37.694Z,101428.91
2023-09-16T09:56:04.404Z,101428.06
2023-09-16T09:58:31.516Z,101435.53
2023-09-16T10:00:58.627Z,101430.38
2023-09-16T10:03:25.405Z,101432.69
2023-09-16T10:05:52.089Z,101434.94
2023-09-16T10:08:18.640Z,101434.47
2023-09-16T10:10:48.084Z,101430.53
2023-09-16T10:13:16.381Z,101430.09
2023-09-16T10:15:43.153Z,101433.28
2023-09-16T10:18:10.001Z,101426.19
2023-09-16T10:20:39.592Z,101423.38
2023-09-16T10:23:06.658Z,101426.13
2023-09-16T10:25:36.171Z,101427.25
2023-09-16T10:28:07.428Z,101427.25
2023-09-16T10:30:36.085Z,101430.41
2023-09-16T10:33:07.807Z,101426.00
2023-09-16T10:35:38.420Z,101431.09
2023-09-16T10:38:07.356Z,101432.31
2023-09-16T10:40:34.144Z,101426.75
2023-09-16T10:43:03.687Z,101426.34
2023-09-16T10:45:31.117Z,101424.00
2023-09-16T10:48:00.702Z,101432.28
2023-09-16T10:50:31.262Z,101424.31
2023-09-16T10:53:16.286Z,101417.16
2023-09-16T10:56:02.008Z,101421.06
2023-09-16T10:58:50.006Z,101414.66
2023-09-16T11:01:48.230Z,101411.81
2023-09-16T11:04:17.606Z,101406.59
2023-09-16T11:06:48.774Z,101406.59
2023-09-16T11:09:16.685Z,101403.72
2023-09-16T11:11:43.857Z,101399.28
2023-09-16T11:14:11.820Z,101396.91
2023-09-16T11:16:46.064Z,101392.06
2023-09-16T11:19:15.812Z,101392.03
2023-09-16T11:21:44.339Z,101400.59
2023-09-16T11:24:12.949Z,101398.63
2023-09-16T11:26:40.359Z,101391.53
2023-09-16T11:29:39.356Z,101387.97
2023-09-16T11:32:06.556Z,101393.94
2023-09-16T11:34:33.505Z,101385.16
2023-09-16T11:37:02.481Z,101382.75
2023-09-16T11:39:37.566Z,101388.66
2023-09-16T11:42:04.485Z,101385.91
2023-09-16T11:44:32.142Z,101384.25
2023-09-16T11:47:00.236Z,101389.38
2023-09-16T11:49:26.918Z,101376.31
2023-09-16T11:51:54.374Z,101378.22
2023-09-16T11:54:21.033Z,101377.75
2023-09-16T11:56:47.629Z,101379.59
2023-09-16T11:59:14.346Z,101373.28
2023-09-16T12:01:42.219Z,101367.22
2023-09-16T12:04:11.825Z,101371.06
2023-09-16T12:06:39.789Z,101371.44
2023-09-16T12:09:09.830Z,101372.56
2023-09-16T12:11:38.637Z,101368.19
2023-09-16T12:14:08.988Z,101363.44
2023-09-16T12:16:37.780Z,101361.88
2023-09-16T12:19:05.702Z,101359.03
2023-09-16T12:21:33.241Z,101357.31
2023-09-16T12:24:00.674Z,101360.75
2023-09-16T12:26:28.717Z,101355.13
2023-09-16T12:28:55.372Z,101346.69
2023-09-16T12:31:25.726Z,101360.06
2023-09-16T12:33:56.583Z,101358.31
2023-09-16T12:36:29.339Z,101366.94
2023-09-16T12:39:00.168Z,101362.44
2023-09-16T12:41:27.966Z,101357.66
2023-09-16T12:43:57.196Z,101354.06
2023-09-16T12:46:26.709Z,101352.78
2023-09-16T12:48:54.120Z,101353.41
2023-09-16T12:51:22.148Z,101343.84
2023-09-16T12:53:53.782Z,101343.25
2023-09-16T12:56:20.447Z,101340.50
2023-09-16T12:58:50.022Z,101345.13
2023-09-16T13:01:21.687Z,101350.84
2023-09-16T13:03:49.177Z,101342.38
2023-09-16T13:06:16.279Z,101340.69
2023-09-16T13:08:44.416Z,101345.22
2023-09-16T13:11:12.263Z,101347.56
2023-09-16T13:13:39.917Z,101346.91
2023-09-16T13:16:07.980Z,101337.38
2023-09-16T13:18:40.922Z,101328.81
2023-09-16T13:21:07.893Z,101334.16
2023-09-16T13:23:35.516Z,101339.47
2023-09-16T13:26:13.029Z,101337.03
2023-09-16T13:28:39.910Z,101330.84
2023-09-16T13:31:06.685Z,101330.88
2023-09-16T13:34:00.789Z,101328.19
2023-09-16T13:36:32.283Z,101322.59
2023-09-16T13:39:01.118Z,101327.97
2023-09-16T13:41:28.312Z,101325.28
2023-09-16T13:43:54.901Z,101324.72
2023-09-16T13:46:21.644Z,101328.06
2023-09-16T13:48:49.340Z,101327.66
2023-09-16T13:51:16.417Z,101323.91
2023-09-16T13:53:43.410Z,101321.53
2023-09-16T13:56:11.706Z,101326.38
2023-09-16T13:58:39.359Z,101324.84
2023-09-16T14:01:06.790Z,101326.38
2023-09-16T14:03:34.872Z,101341.63
2023-09-16T14:06:01.565Z,101335.53
2023-09-16T14:08:28.241Z,101329.97
2023-09-16T14:10:54.777Z,101330.84
2023-09-16T14:13:21.409Z,101334.66
2023-09-16T14:15:48.097Z,101330.97
2023-09-16T14:18:15.914Z,101339.88
2023-09-16T14:20:42.532Z,101334.53
2023-09-16T14:23:09.212Z,101334.75
2023-09-16T14:25:36.201Z,101334.63
2023-09-16T14:28:04.324Z,101332.34
2023-09-16T14:30:32.958Z,101341.34
2023-09-16T14:32:59.928Z,101333.31
2023-09-16T14:35:26.701Z,101328.84
2023-09-16T14:37:56.349Z,101324.75
2023-09-16T14:40:23.654Z,101330.31
2023-09-16T14:42:50.371Z,101332.41
2023-09-16T14:45:16.932Z,101325.59
2023-09-16T14:47:46.326Z,101329.31
2023-09-16T14:50:13.320Z,101325.50
2023-09-16T14:52:41.837Z,101325.03
2023-09-16T14:55:11.133Z,101320.16
2023-09-16T14:57:38.668Z,101319.47
2023-09-16T15:00:09.609Z,101315.91
2023-09-16T15:02:37.711Z,101327.28
2023-09-16T15:05:05.175Z,101326.94
2023-09-16T15:07:31.812Z,101315.75
2023-09-16T15:09:58.572Z,101327.03
2023-09-16T15:12:25.266Z,101328.97
2023-09-16T15:14:52.780Z,101328.97
2023-09-16T15:17:19.569Z,101328.19
2023-09-16T15:19:46.278Z,101328.03
2023-09-16T15:22:13.045Z,101320.09
2023-09-16T15:24:39.757Z,101328.88
2023-09-16T15:27:06.356Z,101331.03
2023-09-16T15:29:32.918Z,101323.66
2023-09-16T15:32:16.427Z,101338.13
2023-09-16T15:34:46.043Z,101335.16
2023-09-16T15:37:12.689Z,101338.78
2023-09-16T15:39:39.328Z,101338.94
2023-09-16T15:42:05.951Z,101342.88
2023-09-16T15:44:32.572Z,101341.72
2023-09-16T15:47:01.985Z,101336.25
2023-09-16T15:49:30.216Z,101335.63
2023-09-16T15:51:56.857Z,101335.38
2023-09-16T15:54:26.197Z,101341.41
2023-09-16T15:56:53.153Z,101343.06
2023-09-16T15:59:19.702Z,101335.22
2023-09-16T16:01:46.412Z,101338.16
2023-09-16T16:04:13.236Z,101337.84
2023-09-16T16:06:41.064Z,101344.66
2023-09-16T16:09:10.159Z,101340.25
2023-09-16T16:11:36.906Z,101341.25
2023-09-16T16:14:03.683Z,101339.56
2023-09-16T16:16:30.646Z,101345.59
2023-09-16T16:18:58.064Z,101345.31
2023-09-16T16:21:24.744Z,101339.91
2023-09-16T16:23:51.679Z,101344.44
2023-09-16T16:26:18.637Z,101346.03
2023-09-16T16:28:45.510Z,101343.28
2023-09-16T16:31:12.185Z,101340.94
2023-09-16T16:33:38.838Z,101347.25
2023-09-16T16:36:05.516Z,101353.22
2023-09-16T16:38:32.081Z,101346.19
2023-09-16T16:40:58.763Z,101345.81
2023-09-16T16:43:25.383Z,101350.72
2023-09-16T16:45:52.005Z,101347.72
2023-09-16T16:48:18.933Z,101349.47
2023-09-16T16:50:45.768Z,101344.03
2023-09-16T16:53:13.219Z,101346.03
2023-09-16T16:55:40.231Z,101347.66
2023-09-16T16:58:06.979Z,101347.34
2023-09-16T17:00:33.620Z,101343.44
2023-09-16T17:03:00.793Z,101346.38
2023-09-16T17:05:28.527Z,101348.03
2023-09-16T17:07:57.933Z,101345.69
2023-09-16T17:10:24.897Z,101347.78
2023-09-16T17:12:51.614Z,101345.09
2023-09-16T17:15:18.195Z,101345.16
2023-09-16T17:17:44.908Z,101353.09
2023-09-16T17:20:11.638Z,101348.41
2023-09-16T17:22:38.337Z,101345.31
2023-09-16T17:25:05.637Z,101346.19
2023-09-16T17:27:32.503Z,101340.78
2023-09-16T17:29:59.196Z,101347.13
2023-09-16T17:32:25.839Z,101351.09
2023-09-16T17:34:52.361Z,101351.13
2023-09-16T17:37:19.029Z,101359.47
2023-09-16T17:39:45.861Z,101355.22
2023-09-16T17:42:12.501Z,101358.44
2023-09-16T17:44:39.688Z,101368.31
2023-09-16T17:47:06.298Z,101364.09
2023-09-16T17:49:33.217Z,101370.00
2023-09-16T17:52:00.333Z,101377.56
2023-09-16T17:54:27.230Z,101378.38
2023-09-16T17:56:53.987Z,101376.91
2023-09-16T17:59:20.651Z,101383.25
2023-09-16T18:01:47.885Z,101381.31
2023-09-16T18:04:14.649Z,101383.25
2023-09-16T18:06:42.529Z,101384.47
2023-09-16T18:09:11.127Z,101390.41
2023-09-16T18:11:38.275Z,101389.66
2023-09-16T18:14:05.189Z,101390.09
2023-09-16T18:16:32.887Z,101396.44
2023-09-16T18:18:59.816Z,101394.47
2023-09-16T18:21:26.602Z,101402.44
2023-09-16T18:23:53.425Z,101398.47
2023-09-16T18:26:20.125Z,101405.97
2023-09-16T18:28:46.774Z,101400.88
2023-09-16T18:31:14.789Z,101403.63
2023-09-16T18:33:41.485Z,101407.59
2023-09-16T18:36:08.296Z,101421.00
2023-09-16T18:38:34.972Z,101422.59
2023-09-16T18:41:01.659Z,101419.47
2023-09-16T18:43:28.381Z,101430.50
2023-09-16T18:45:55.677Z,101431.66
2023-09-16T18:48:22.290Z,101434.47
2023-09-16T18:50:48.885Z,101434.84
2023-09-16T18:53:15.512Z,101437.19
2023-09-16T18:55:45.443Z,101444.69
2023-09-16T18:58:14.079Z,101440.41
2023-09-16T19:00:41.623Z,101442.75
2023-09-16T19:03:08.994Z,101445.13
2023-09-16T19:05:39.978Z,101443.94
2023-09-16T19:08:07.647Z,101455.00
2023-09-16T19:10:34.432Z,101447.94
2023-09-16T19:13:01.266Z,101457.78
2023-09-16T19:15:27.930Z,101452.31
2023-09-16T19:17:54.629Z,101455.09
2023-09-16T19:20:21.316Z,101462.59
2023-09-16T19:22:48.086Z,101453.53
2023-09-16T19:25:14.799Z,101454.31
2023-09-16T19:27:41.841Z,101461.84
2023-09-16T19:30:09.397Z,101461.44
2023-09-16T19:32:36.290Z,101469.34
2023-09-16T19:35:04.304Z,101468.53
2023-09-16T19:37:31.127Z,101474.50
2023-09-16T19:39:58.576Z,101472.97
2023-09-16T19:42:25.304Z,101474.16
2023-09-16T19:44:54.939Z,101470.22
2023-09-16T19:47:25.366Z,101475.41
2023-09-16T19:49:53.258Z,101471.91
2023-09-16T19:52:20.614Z,101471.53
2023-09-16T19:54:47.327Z,101464.84
2023-09-16T19:57:14.213Z,101461.31
2023-09-16T19:59:40.912Z,101460.16
2023-09-16T20:02:07.486Z,101462.16
2023-09-16T20:04:34.151Z,101453.09
2023-09-16T20:07:01.799Z,101453.50
2023-09-16T20:09:28.927Z,101447.22
2023-09-16T20:11:55.765Z,101444.47
2023-09-16T20:14:22.375Z,101436.59
2023-09-16T20:16:49.032Z,101442.50
2023-09-16T20:19:18.948Z,101448.00
2023-09-16T20:21:47.580Z,101441.31
2023-09-16T20:24:14.101Z,101437.75
2023-09-16T20:26:40.760Z,101429.91
2023-09-16T20:29:07.576Z,101427.16
2023-09-16T20:31:34.895Z,101422.06
2023-09-16T20:34:10.848Z,101427.16
2023-09-16T20:36:38.842Z,101430.31
2023-09-16T20:39:08.006Z,101437.00
2023-09-16T20:41:34.848Z,101445.69
2023-09-16T20:44:05.577Z,101452.34
2023-09-16T20:46:32.291Z,101457.44
2023-09-16T20:48:59.023Z,101450.78
2023-09-16T20:51:25.598Z,101447.66
2023-09-16T20:53:52.613Z,101453.53
2023-09-16T20:56:19.472Z,101454.72
2023-09-16T20:58:46.273Z,101449.22
2023-09-16T21:01:13.920Z,101452.38
2023-09-16T21:03:41.659Z,101453.13
2023-09-16T21:06:08.661Z,101452.34
2023-09-16T21:08:35.246Z,101454.72
2023-09-16T21:11:01.886Z,101450.75
2023-09-16T21:13:28.519Z,101451.91
2023-09-16T21:15:55.226Z,101440.84
2023-09-16T21:18:22.428Z,101440.03
2023-09-16T21:20:49.125Z,101432.56
2023-09-16T21:23:15.766Z,101430.22
2023-09-16T21:25:42.638Z,101424.31
2023-09-16T21:28:09.230Z,101425.88
2023-09-16T21:30:35.897Z,101429.38
2023-09-16T21:33:02.832Z,101431.75
2023-09-16T21:35:30.267Z,101432.13
2023-09-16T21:37:57.054Z,101429.38
2023-09-16T21:40:25.476Z,101433.69
2023-09-16T21:42:53.597Z,101429.34
2023-09-16T21:45:20.636Z,101431.31
2023-09-16T21:47:47.270Z,101434.47
2023-09-16T21:50:13.932Z,101432.50
2023-09-16T21:52:40.628Z,101434.06
2023-09-16T21:55:07.836Z,101432.09
2023-09-16T21:57:34.441Z,101438.34
2023-09-16T22:00:01.736Z,101428.09
2023-09-16T22:02:28.467Z,101440.66
2023-09-16T22:04:55.087Z,101439.09
2023-09-16T22:07:21.787Z,101432.03
2023-09-16T22:09:48.644Z,101435.91
2023-09-16T22:12:15.280Z,101440.19
2023-09-16T22:14:41.805Z,101444.88
2023-09-16T22:17:08.393Z,101442.50
2023-09-16T22:19:35.019Z,101440.50
2023-09-16T22:22:01.605Z,101444.84
2023-09-16T22:24:28.140Z,101438.94
2023-09-16T22:26:54.689Z,101441.22
2023-09-16T22:29:21.296Z,101431.81
2023-09-16T22:31:48.030Z,101435.34
2023-09-16T22:34:14.721Z,101432.59
2023-09-16T22:36:41.253Z,101434.22
2023-09-16T22:39:09.522Z,101436.16
2023-09-16T22:41:36.465Z,101427.53
2023-09-16T22:44:04.009Z,101424.34
2023-09-16T22:46:31.078Z,101426.31
2023-09-16T22:48:58.165Z,101432.22
2023-09-16T22:51:24.685Z,101434.56
2023-09-16T22:53:51.543Z,101422.00
2023-09-16T22:56:18.270Z,101423.56
2023-09-16T22:58:45.927Z,101422.44
2023-09-16T23:01:12.988Z,101432.66
2023-09-16T23:03:39.946Z,101423.56
2023-09-16T23:06:06.612Z,101428.25
2023-09-16T23:08:33.316Z,101427.84
2023-09-16T23:11:00.004Z,101412.88
2023-09-16T23:13:26.629Z,101413.25
2023-09-16T23:15:53.283Z,101416.75
2023-09-16T23:18:19.852Z,101421.03
2023-09-16T23:20:57.310Z,101414.00
2023-09-16T23:23:24.061Z,101423.38
2023-09-16T23:25:50.607Z,101422.22
2023-09-16T23:28:17.219Z,101423.78
2023-09-16T23:30:43.960Z,101420.69
2023-09-16T23:33:10.775Z,101419.91
2023-09-16T23:35:37.394Z,101421.84
2023-09-16T23:38:04.469Z,101415.94
2023-09-16T23:40:31.216Z,101414.00
2023-09-16T23:42:58.370Z,101413.97
2023-09-16T23:45:24.927Z,101421.03
2023-09-16T23:47:51.473Z,101417.50
2023-09-16T23:50:18.158Z,101417.47
2023-09-16T23:52:44.764Z,101423.34
2023-09-16T23:55:11.427Z,101425.28
2023-09-16T23:57:37.989Z,101420.50
